sensor_id;sensor_type;location;lat;lon;timestamp;P1;durP1;ratioP1;P2;durP2;ratioP2
33094;SDS011;19459;53.044;8.910;2022-07-17T00:00:01;13.57;;;2.88;;
33094;SDS011;19459;53.044;8.910;2022-07-17T00:02:29;11.20;;;2.55;;
33094;SDS011;19459;53.044;8.910;2022-07-17T00:04:55;10.18;;;2.15;;
33094;SDS011;19459;53.044;8.910;2022-07-17T00:07:20;9.02;;;2.78;;
33094;SDS011;19459;53.044;8.910;2022-07-17T00:09:46;6.72;;;1.80;;
33094;SDS011;19459;53.044;8.910;2022-07-17T00:12:12;5.82;;;2.25;;
33094;SDS011;19459;53.044;8.910;2022-07-17T00:14:38;9.60;;;2.58;;
33094;SDS011;19459;53.044;8.910;2022-07-17T00:17:04;10.05;;;2.70;;
33094;SDS011;19459;53.044;8.910;2022-07-17T00:19:30;5.15;;;2.35;;
33094;SDS011;19459;53.044;8.910;2022-07-17T00:21:57;11.95;;;3.17;;
33094;SDS011;19459;53.044;8.910;2022-07-17T00:24:23;8.55;;;3.03;;
33094;SDS011;19459;53.044;8.910;2022-07-17T00:26:49;8.75;;;2.72;;
33094;SDS011;19459;53.044;8.910;2022-07-17T00:29:18;9.93;;;2.95;;
33094;SDS011;19459;53.044;8.910;2022-07-17T00:31:44;12.10;;;3.33;;
33094;SDS011;19459;53.044;8.910;2022-07-17T00:34:10;10.52;;;3.50;;
33094;SDS011;19459;53.044;8.910;2022-07-17T00:36:36;11.45;;;3.58;;
33094;SDS011;19459;53.044;8.910;2022-07-17T00:39:03;7.53;;;2.58;;
33094;SDS011;19459;53.044;8.910;2022-07-17T00:41:29;11.63;;;3.65;;
33094;SDS011;19459;53.044;8.910;2022-07-17T00:44:02;9.32;;;3.20;;
33094;SDS011;19459;53.044;8.910;2022-07-17T00:46:33;8.30;;;2.50;;
33094;SDS011;19459;53.044;8.910;2022-07-17T00:48:59;7.00;;;2.25;;
33094;SDS011;19459;53.044;8.910;2022-07-17T00:51:25;8.73;;;2.83;;
33094;SDS011;19459;53.044;8.910;2022-07-17T00:53:52;7.88;;;2.90;;
33094;SDS011;19459;53.044;8.910;2022-07-17T00:56:20;13.60;;;3.10;;
33094;SDS011;19459;53.044;8.910;2022-07-17T00:58:48;11.27;;;2.90;;
33094;SDS011;19459;53.044;8.910;2022-07-17T01:01:15;11.48;;;2.45;;
33094;SDS011;19459;53.044;8.910;2022-07-17T01:03:42;11.55;;;2.90;;
33094;SDS011;19459;53.044;8.910;2022-07-17T01:06:08;9.55;;;3.58;;
33094;SDS011;19459;53.044;8.910;2022-07-17T01:08:34;8.77;;;2.90;;
33094;SDS011;19459;53.044;8.910;2022-07-17T01:11:01;11.05;;;4.00;;
33094;SDS011;19459;53.044;8.910;2022-07-17T01:13:28;9.07;;;3.05;;
33094;SDS011;19459;53.044;8.910;2022-07-17T01:15:55;8.93;;;2.50;;
33094;SDS011;19459;53.044;8.910;2022-07-17T01:18:22;7.80;;;2.38;;
33094;SDS011;19459;53.044;8.910;2022-07-17T01:20:48;13.95;;;3.22;;
33094;SDS011;19459;53.044;8.910;2022-07-17T01:23:15;6.93;;;2.95;;
33094;SDS011;19459;53.044;8.910;2022-07-17T01:25:44;9.43;;;2.45;;
33094;SDS011;19459;53.044;8.910;2022-07-17T01:28:10;7.18;;;2.85;;
33094;SDS011;19459;53.044;8.910;2022-07-17T01:30:44;11.55;;;2.67;;
33094;SDS011;19459;53.044;8.910;2022-07-17T01:33:12;9.77;;;2.90;;
33094;SDS011;19459;53.044;8.910;2022-07-17T01:35:38;9.90;;;3.17;;
33094;SDS011;19459;53.044;8.910;2022-07-17T01:38:05;8.32;;;3.45;;
33094;SDS011;19459;53.044;8.910;2022-07-17T01:40:31;9.20;;;2.47;;
33094;SDS011;19459;53.044;8.910;2022-07-17T01:42:56;7.70;;;3.25;;
33094;SDS011;19459;53.044;8.910;2022-07-17T01:45:22;11.13;;;2.60;;
33094;SDS011;19459;53.044;8.910;2022-07-17T01:47:48;12.00;;;2.90;;
33094;SDS011;19459;53.044;8.910;2022-07-17T01:50:14;11.10;;;2.90;;
33094;SDS011;19459;53.044;8.910;2022-07-17T01:52:41;10.13;;;3.47;;
33094;SDS011;19459;53.044;8.910;2022-07-17T01:55:10;11.95;;;3.20;;
33094;SDS011;19459;53.044;8.910;2022-07-17T01:57:38;8.55;;;2.97;;
33094;SDS011;19459;53.044;8.910;2022-07-17T02:00:06;6.90;;;3.45;;
33094;SDS011;19459;53.044;8.910;2022-07-17T02:02:35;9.95;;;3.08;;
33094;SDS011;19459;53.044;8.910;2022-07-17T02:05:01;6.35;;;2.72;;
33094;SDS011;19459;53.044;8.910;2022-07-17T02:07:28;7.70;;;2.80;;
33094;SDS011;19459;53.044;8.910;2022-07-17T02:09:54;9.95;;;3.10;;
33094;SDS011;19459;53.044;8.910;2022-07-17T02:12:20;10.32;;;3.05;;
33094;SDS011;19459;53.044;8.910;2022-07-17T02:14:45;9.27;;;3.13;;
33094;SDS011;19459;53.044;8.910;2022-07-17T02:17:11;6.55;;;2.90;;
33094;SDS011;19459;53.044;8.910;2022-07-17T02:19:37;4.90;;;2.80;;
33094;SDS011;19459;53.044;8.910;2022-07-17T02:22:03;7.80;;;3.30;;
33094;SDS011;19459;53.044;8.910;2022-07-17T02:24:29;8.85;;;3.00;;
33094;SDS011;19459;53.044;8.910;2022-07-17T02:26:56;7.93;;;3.22;;
33094;SDS011;19459;53.044;8.910;2022-07-17T02:29:21;9.52;;;2.80;;
33094;SDS011;19459;53.044;8.910;2022-07-17T02:31:47;7.10;;;3.30;;
33094;SDS011;19459;53.044;8.910;2022-07-17T02:34:13;8.77;;;2.95;;
33094;SDS011;19459;53.044;8.910;2022-07-17T02:36:39;5.85;;;3.15;;
33094;SDS011;19459;53.044;8.910;2022-07-17T02:39:04;15.63;;;3.35;;
33094;SDS011;19459;53.044;8.910;2022-07-17T02:41:30;9.55;;;3.15;;
33094;SDS011;19459;53.044;8.910;2022-07-17T02:43:56;6.53;;;2.72;;
33094;SDS011;19459;53.044;8.910;2022-07-17T02:46:22;10.90;;;3.50;;
33094;SDS011;19459;53.044;8.910;2022-07-17T02:48:47;7.65;;;3.30;;
33094;SDS011;19459;53.044;8.910;2022-07-17T02:51:13;8.02;;;3.10;;
33094;SDS011;19459;53.044;8.910;2022-07-17T02:53:39;11.27;;;3.10;;
33094;SDS011;19459;53.044;8.910;2022-07-17T02:56:05;6.72;;;3.00;;
33094;SDS011;19459;53.044;8.910;2022-07-17T02:58:31;13.98;;;2.97;;
33094;SDS011;19459;53.044;8.910;2022-07-17T03:00:57;12.35;;;2.70;;
33094;SDS011;19459;53.044;8.910;2022-07-17T03:03:23;7.20;;;2.58;;
33094;SDS011;19459;53.044;8.910;2022-07-17T03:05:49;9.57;;;2.92;;
33094;SDS011;19459;53.044;8.910;2022-07-17T03:08:15;8.75;;;3.10;;
33094;SDS011;19459;53.044;8.910;2022-07-17T03:10:41;10.15;;;3.40;;
33094;SDS011;19459;53.044;8.910;2022-07-17T03:13:07;13.55;;;3.78;;
33094;SDS011;19459;53.044;8.910;2022-07-17T03:15:32;10.52;;;3.45;;
33094;SDS011;19459;53.044;8.910;2022-07-17T03:17:58;7.75;;;3.28;;
33094;SDS011;19459;53.044;8.910;2022-07-17T03:20:24;9.85;;;2.80;;
33094;SDS011;19459;53.044;8.910;2022-07-17T03:22:50;6.93;;;2.85;;
33094;SDS011;19459;53.044;8.910;2022-07-17T03:25:16;13.00;;;3.22;;
33094;SDS011;19459;53.044;8.910;2022-07-17T03:27:41;11.25;;;3.05;;
33094;SDS011;19459;53.044;8.910;2022-07-17T03:30:07;13.52;;;3.25;;
33094;SDS011;19459;53.044;8.910;2022-07-17T03:32:34;8.05;;;3.63;;
33094;SDS011;19459;53.044;8.910;2022-07-17T03:35:00;9.10;;;3.13;;
33094;SDS011;19459;53.044;8.910;2022-07-17T03:37:26;10.82;;;3.80;;
33094;SDS011;19459;53.044;8.910;2022-07-17T03:39:53;12.52;;;3.90;;
33094;SDS011;19459;53.044;8.910;2022-07-17T03:42:19;15.27;;;4.60;;
33094;SDS011;19459;53.044;8.910;2022-07-17T03:44:45;10.68;;;3.10;;
33094;SDS011;19459;53.044;8.910;2022-07-17T03:47:11;14.48;;;3.95;;
33094;SDS011;19459;53.044;8.910;2022-07-17T03:49:37;9.68;;;3.50;;
33094;SDS011;19459;53.044;8.910;2022-07-17T03:52:03;16.95;;;4.38;;
33094;SDS011;19459;53.044;8.910;2022-07-17T03:54:30;8.23;;;3.35;;
33094;SDS011;19459;53.044;8.910;2022-07-17T03:56:55;8.80;;;3.45;;
33094;SDS011;19459;53.044;8.910;2022-07-17T03:59:22;10.68;;;3.63;;
33094;SDS011;19459;53.044;8.910;2022-07-17T04:01:48;15.45;;;3.83;;
33094;SDS011;19459;53.044;8.910;2022-07-17T04:04:14;11.48;;;3.72;;
33094;SDS011;19459;53.044;8.910;2022-07-17T04:06:40;13.30;;;3.08;;
33094;SDS011;19459;53.044;8.910;2022-07-17T04:09:05;6.32;;;3.50;;
33094;SDS011;19459;53.044;8.910;2022-07-17T04:11:31;11.40;;;4.50;;
33094;SDS011;19459;53.044;8.910;2022-07-17T04:13:57;11.18;;;3.78;;
33094;SDS011;19459;53.044;8.910;2022-07-17T04:16:23;20.55;;;4.10;;
33094;SDS011;19459;53.044;8.910;2022-07-17T04:18:48;9.80;;;4.05;;
33094;SDS011;19459;53.044;8.910;2022-07-17T04:21:14;11.32;;;3.67;;
33094;SDS011;19459;53.044;8.910;2022-07-17T04:23:40;9.25;;;3.15;;
33094;SDS011;19459;53.044;8.910;2022-07-17T04:26:06;6.97;;;2.92;;
33094;SDS011;19459;53.044;8.910;2022-07-17T04:28:32;6.30;;;3.10;;
33094;SDS011;19459;53.044;8.910;2022-07-17T04:30:59;14.45;;;4.43;;
33094;SDS011;19459;53.044;8.910;2022-07-17T04:33:25;8.70;;;3.47;;
33094;SDS011;19459;53.044;8.910;2022-07-17T04:35:51;9.77;;;3.55;;
33094;SDS011;19459;53.044;8.910;2022-07-17T04:38:18;8.75;;;3.22;;
33094;SDS011;19459;53.044;8.910;2022-07-17T04:40:43;11.50;;;3.40;;
33094;SDS011;19459;53.044;8.910;2022-07-17T04:43:10;9.60;;;3.78;;
33094;SDS011;19459;53.044;8.910;2022-07-17T04:45:35;11.15;;;3.97;;
33094;SDS011;19459;53.044;8.910;2022-07-17T04:48:01;15.95;;;3.83;;
33094;SDS011;19459;53.044;8.910;2022-07-17T04:50:27;9.18;;;3.47;;
33094;SDS011;19459;53.044;8.910;2022-07-17T04:52:53;10.88;;;3.35;;
33094;SDS011;19459;53.044;8.910;2022-07-17T04:55:19;12.95;;;4.40;;
33094;SDS011;19459;53.044;8.910;2022-07-17T04:57:45;7.10;;;3.90;;
33094;SDS011;19459;53.044;8.910;2022-07-17T05:00:11;8.20;;;3.63;;
33094;SDS011;19459;53.044;8.910;2022-07-17T05:02:37;13.15;;;4.03;;
33094;SDS011;19459;53.044;8.910;2022-07-17T05:05:04;21.27;;;3.97;;
33094;SDS011;19459;53.044;8.910;2022-07-17T05:07:30;14.60;;;3.90;;
33094;SDS011;19459;53.044;8.910;2022-07-17T05:09:56;12.95;;;3.72;;
33094;SDS011;19459;53.044;8.910;2022-07-17T05:12:22;20.50;;;4.40;;
33094;SDS011;19459;53.044;8.910;2022-07-17T05:14:48;11.40;;;3.70;;
33094;SDS011;19459;53.044;8.910;2022-07-17T05:17:14;10.43;;;4.10;;
33094;SDS011;19459;53.044;8.910;2022-07-17T05:19:40;11.73;;;3.92;;
33094;SDS011;19459;53.044;8.910;2022-07-17T05:22:06;8.85;;;3.35;;
33094;SDS011;19459;53.044;8.910;2022-07-17T05:24:31;17.58;;;4.25;;
33094;SDS011;19459;53.044;8.910;2022-07-17T05:26:58;11.15;;;3.67;;
33094;SDS011;19459;53.044;8.910;2022-07-17T05:29:25;10.18;;;4.18;;
33094;SDS011;19459;53.044;8.910;2022-07-17T05:31:51;11.90;;;3.97;;
33094;SDS011;19459;53.044;8.910;2022-07-17T05:34:17;13.52;;;4.45;;
33094;SDS011;19459;53.044;8.910;2022-07-17T05:36:43;8.70;;;3.67;;
33094;SDS011;19459;53.044;8.910;2022-07-17T05:39:09;7.82;;;3.80;;
33094;SDS011;19459;53.044;8.910;2022-07-17T05:41:35;15.13;;;3.85;;
33094;SDS011;19459;53.044;8.910;2022-07-17T05:44:01;11.07;;;4.07;;
33094;SDS011;19459;53.044;8.910;2022-07-17T05:46:27;14.93;;;3.83;;
33094;SDS011;19459;53.044;8.910;2022-07-17T05:48:53;14.50;;;4.32;;
33094;SDS011;19459;53.044;8.910;2022-07-17T05:51:19;9.77;;;3.78;;
33094;SDS011;19459;53.044;8.910;2022-07-17T05:53:45;13.95;;;4.05;;
33094;SDS011;19459;53.044;8.910;2022-07-17T05:56:11;11.88;;;4.88;;
33094;SDS011;19459;53.044;8.910;2022-07-17T05:58:37;9.10;;;3.50;;
33094;SDS011;19459;53.044;8.910;2022-07-17T06:01:03;14.68;;;3.67;;
33094;SDS011;19459;53.044;8.910;2022-07-17T06:03:29;6.15;;;3.63;;
33094;SDS011;19459;53.044;8.910;2022-07-17T06:05:55;13.93;;;5.32;;
33094;SDS011;19459;53.044;8.910;2022-07-17T06:08:21;7.72;;;3.30;;
33094;SDS011;19459;53.044;8.910;2022-07-17T06:10:47;9.27;;;3.50;;
33094;SDS011;19459;53.044;8.910;2022-07-17T06:13:13;8.18;;;3.60;;
33094;SDS011;19459;53.044;8.910;2022-07-17T06:15:38;9.75;;;3.60;;
33094;SDS011;19459;53.044;8.910;2022-07-17T06:18:04;11.45;;;4.38;;
33094;SDS011;19459;53.044;8.910;2022-07-17T06:20:30;12.63;;;4.30;;
33094;SDS011;19459;53.044;8.910;2022-07-17T06:22:56;11.02;;;3.47;;
33094;SDS011;19459;53.044;8.910;2022-07-17T06:25:23;9.77;;;3.42;;
33094;SDS011;19459;53.044;8.910;2022-07-17T06:27:49;13.48;;;3.53;;
33094;SDS011;19459;53.044;8.910;2022-07-17T06:30:17;8.82;;;3.15;;
33094;SDS011;19459;53.044;8.910;2022-07-17T06:32:43;9.95;;;3.00;;
33094;SDS011;19459;53.044;8.910;2022-07-17T06:35:10;6.00;;;2.90;;
33094;SDS011;19459;53.044;8.910;2022-07-17T06:37:37;11.65;;;3.40;;
33094;SDS011;19459;53.044;8.910;2022-07-17T06:40:03;6.95;;;2.80;;
33094;SDS011;19459;53.044;8.910;2022-07-17T06:42:31;9.30;;;3.08;;
33094;SDS011;19459;53.044;8.910;2022-07-17T06:44:57;8.82;;;2.60;;
33094;SDS011;19459;53.044;8.910;2022-07-17T06:47:22;8.43;;;3.38;;
33094;SDS011;19459;53.044;8.910;2022-07-17T06:49:48;5.63;;;2.60;;
33094;SDS011;19459;53.044;8.910;2022-07-17T06:52:14;7.78;;;2.72;;
33094;SDS011;19459;53.044;8.910;2022-07-17T06:54:40;9.05;;;2.67;;
33094;SDS011;19459;53.044;8.910;2022-07-17T06:57:06;11.93;;;2.35;;
33094;SDS011;19459;53.044;8.910;2022-07-17T06:59:32;16.08;;;2.83;;
33094;SDS011;19459;53.044;8.910;2022-07-17T07:01:58;7.60;;;2.47;;
33094;SDS011;19459;53.044;8.910;2022-07-17T07:04:24;9.43;;;3.10;;
33094;SDS011;19459;53.044;8.910;2022-07-17T07:06:50;7.88;;;1.90;;
33094;SDS011;19459;53.044;8.910;2022-07-17T07:09:15;15.95;;;2.72;;
33094;SDS011;19459;53.044;8.910;2022-07-17T07:11:41;12.98;;;2.92;;
33094;SDS011;19459;53.044;8.910;2022-07-17T07:14:07;7.70;;;1.98;;
33094;SDS011;19459;53.044;8.910;2022-07-17T07:16:33;11.10;;;2.53;;
33094;SDS011;19459;53.044;8.910;2022-07-17T07:18:59;15.80;;;2.47;;
33094;SDS011;19459;53.044;8.910;2022-07-17T07:21:25;9.45;;;2.20;;
33094;SDS011;19459;53.044;8.910;2022-07-17T07:23:54;9.23;;;2.55;;
33094;SDS011;19459;53.044;8.910;2022-07-17T07:26:21;13.52;;;2.10;;
33094;SDS011;19459;53.044;8.910;2022-07-17T07:28:47;9.13;;;2.35;;
33094;SDS011;19459;53.044;8.910;2022-07-17T07:31:13;14.82;;;2.58;;
33094;SDS011;19459;53.044;8.910;2022-07-17T07:33:41;8.63;;;2.05;;
33094;SDS011;19459;53.044;8.910;2022-07-17T07:36:08;12.27;;;2.58;;
33094;SDS011;19459;53.044;8.910;2022-07-17T07:38:40;21.08;;;2.78;;
33094;SDS011;19459;53.044;8.910;2022-07-17T07:41:05;9.90;;;2.65;;
33094;SDS011;19459;53.044;8.910;2022-07-17T07:43:31;10.15;;;2.47;;
33094;SDS011;19459;53.044;8.910;2022-07-17T07:45:57;18.15;;;2.30;;
33094;SDS011;19459;53.044;8.910;2022-07-17T07:48:23;7.55;;;2.17;;
33094;SDS011;19459;53.044;8.910;2022-07-17T07:50:49;12.70;;;2.00;;
33094;SDS011;19459;53.044;8.910;2022-07-17T07:53:15;11.93;;;2.00;;
33094;SDS011;19459;53.044;8.910;2022-07-17T07:55:41;7.20;;;1.80;;
33094;SDS011;19459;53.044;8.910;2022-07-17T07:58:07;12.20;;;2.47;;
33094;SDS011;19459;53.044;8.910;2022-07-17T08:00:37;8.85;;;1.98;;
33094;SDS011;19459;53.044;8.910;2022-07-17T08:03:05;6.82;;;1.45;;
33094;SDS011;19459;53.044;8.910;2022-07-17T08:05:31;8.60;;;1.70;;
33094;SDS011;19459;53.044;8.910;2022-07-17T08:07:58;9.40;;;1.52;;
33094;SDS011;19459;53.044;8.910;2022-07-17T08:10:24;7.50;;;2.05;;
33094;SDS011;19459;53.044;8.910;2022-07-17T08:12:50;10.15;;;1.55;;
33094;SDS011;19459;53.044;8.910;2022-07-17T08:15:17;10.02;;;1.83;;
33094;SDS011;19459;53.044;8.910;2022-07-17T08:17:46;10.25;;;2.67;;
33094;SDS011;19459;53.044;8.910;2022-07-17T08:20:15;9.95;;;2.40;;
33094;SDS011;19459;53.044;8.910;2022-07-17T08:22:42;17.00;;;2.95;;
33094;SDS011;19459;53.044;8.910;2022-07-17T08:25:08;9.27;;;2.70;;
33094;SDS011;19459;53.044;8.910;2022-07-17T08:27:39;8.73;;;2.47;;
33094;SDS011;19459;53.044;8.910;2022-07-17T08:30:06;7.72;;;2.72;;
33094;SDS011;19459;53.044;8.910;2022-07-17T08:32:35;10.23;;;2.17;;
33094;SDS011;19459;53.044;8.910;2022-07-17T08:35:02;13.35;;;2.38;;
33094;SDS011;19459;53.044;8.910;2022-07-17T08:37:29;7.57;;;1.73;;
33094;SDS011;19459;53.044;8.910;2022-07-17T08:39:56;14.52;;;2.40;;
33094;SDS011;19459;53.044;8.910;2022-07-17T08:42:22;6.38;;;1.73;;
33094;SDS011;19459;53.044;8.910;2022-07-17T08:44:48;8.32;;;2.28;;
33094;SDS011;19459;53.044;8.910;2022-07-17T08:47:14;5.18;;;1.73;;
33094;SDS011;19459;53.044;8.910;2022-07-17T08:49:42;9.98;;;2.00;;
33094;SDS011;19459;53.044;8.910;2022-07-17T08:52:11;11.88;;;2.17;;
33094;SDS011;19459;53.044;8.910;2022-07-17T08:54:38;5.85;;;1.50;;
33094;SDS011;19459;53.044;8.910;2022-07-17T08:57:05;6.10;;;2.00;;
33094;SDS011;19459;53.044;8.910;2022-07-17T08:59:31;6.60;;;1.75;;
33094;SDS011;19459;53.044;8.910;2022-07-17T09:01:59;8.18;;;1.85;;
33094;SDS011;19459;53.044;8.910;2022-07-17T09:04:26;7.00;;;1.77;;
33094;SDS011;19459;53.044;8.910;2022-07-17T09:06:59;8.68;;;2.65;;
33094;SDS011;19459;53.044;8.910;2022-07-17T09:09:27;8.80;;;2.50;;
33094;SDS011;19459;53.044;8.910;2022-07-17T09:11:54;12.10;;;2.20;;
33094;SDS011;19459;53.044;8.910;2022-07-17T09:14:23;8.70;;;2.60;;
33094;SDS011;19459;53.044;8.910;2022-07-17T09:16:53;3.08;;;1.40;;
33094;SDS011;19459;53.044;8.910;2022-07-17T09:19:30;9.68;;;1.65;;
33094;SDS011;19459;53.044;8.910;2022-07-17T09:22:10;3.90;;;1.40;;
33094;SDS011;19459;53.044;8.910;2022-07-17T09:32:21;3.55;;;1.25;;
33094;SDS011;19459;53.044;8.910;2022-07-17T09:34:51;7.75;;;1.90;;
33094;SDS011;19459;53.044;8.910;2022-07-17T09:37:21;4.53;;;1.45;;
33094;SDS011;19459;53.044;8.910;2022-07-17T09:39:51;6.50;;;1.65;;
33094;SDS011;19459;53.044;8.910;2022-07-17T09:42:22;7.70;;;1.80;;
33094;SDS011;19459;53.044;8.910;2022-07-17T09:47:29;3.13;;;1.27;;
33094;SDS011;19459;53.044;8.910;2022-07-17T09:49:59;8.98;;;2.22;;
33094;SDS011;19459;53.044;8.910;2022-07-17T09:52:29;4.43;;;1.10;;
33094;SDS011;19459;53.044;8.910;2022-07-17T09:54:58;5.60;;;1.40;;
33094;SDS011;19459;53.044;8.910;2022-07-17T09:57:26;6.32;;;1.40;;
33094;SDS011;19459;53.044;8.910;2022-07-17T09:59:55;5.30;;;1.25;;
33094;SDS011;19459;53.044;8.910;2022-07-17T10:02:27;5.28;;;1.42;;
33094;SDS011;19459;53.044;8.910;2022-07-17T10:04:54;7.18;;;1.52;;
33094;SDS011;19459;53.044;8.910;2022-07-17T10:07:20;3.20;;;1.10;;
33094;SDS011;19459;53.044;8.910;2022-07-17T10:09:47;4.68;;;1.52;;
33094;SDS011;19459;53.044;8.910;2022-07-17T10:12:13;4.45;;;1.52;;
33094;SDS011;19459;53.044;8.910;2022-07-17T10:14:40;3.35;;;1.52;;
33094;SDS011;19459;53.044;8.910;2022-07-17T10:17:07;3.67;;;1.58;;
33094;SDS011;19459;53.044;8.910;2022-07-17T10:19:43;7.35;;;1.73;;
33094;SDS011;19459;53.044;8.910;2022-07-17T10:22:18;8.82;;;1.90;;
33094;SDS011;19459;53.044;8.910;2022-07-17T10:25:03;8.10;;;1.40;;
33094;SDS011;19459;53.044;8.910;2022-07-17T10:27:30;7.78;;;1.30;;
33094;SDS011;19459;53.044;8.910;2022-07-17T10:30:03;4.63;;;1.35;;
33094;SDS011;19459;53.044;8.910;2022-07-17T10:32:35;7.35;;;1.60;;
33094;SDS011;19459;53.044;8.910;2022-07-17T10:50:37;7.70;;;1.48;;
33094;SDS011;19459;53.044;8.910;2022-07-17T11:03:37;4.95;;;2.05;;
33094;SDS011;19459;53.044;8.910;2022-07-17T11:06:09;10.85;;;2.05;;
33094;SDS011;19459;53.044;8.910;2022-07-17T11:08:48;10.68;;;1.83;;
33094;SDS011;19459;53.044;8.910;2022-07-17T11:11:18;5.10;;;1.70;;
33094;SDS011;19459;53.044;8.910;2022-07-17T11:13:47;5.05;;;1.75;;
33094;SDS011;19459;53.044;8.910;2022-07-17T11:16:27;5.65;;;1.75;;
33094;SDS011;19459;53.044;8.910;2022-07-17T11:18:54;9.23;;;2.03;;
33094;SDS011;19459;53.044;8.910;2022-07-17T11:21:20;11.32;;;2.00;;
33094;SDS011;19459;53.044;8.910;2022-07-17T11:23:51;9.43;;;1.98;;
33094;SDS011;19459;53.044;8.910;2022-07-17T11:26:19;7.35;;;2.28;;
33094;SDS011;19459;53.044;8.910;2022-07-17T11:28:45;6.07;;;1.80;;
33094;SDS011;19459;53.044;8.910;2022-07-17T11:33:48;6.55;;;2.20;;
33094;SDS011;19459;53.044;8.910;2022-07-17T11:36:33;7.45;;;1.80;;
33094;SDS011;19459;53.044;8.910;2022-07-17T11:39:06;6.60;;;2.05;;
33094;SDS011;19459;53.044;8.910;2022-07-17T11:41:45;9.02;;;1.90;;
33094;SDS011;19459;53.044;8.910;2022-07-17T11:44:16;6.65;;;1.50;;
33094;SDS011;19459;53.044;8.910;2022-07-17T11:46:49;6.95;;;1.70;;
33094;SDS011;19459;53.044;8.910;2022-07-17T11:49:25;3.25;;;1.20;;
33094;SDS011;19459;53.044;8.910;2022-07-17T11:51:57;4.15;;;1.20;;
33094;SDS011;19459;53.044;8.910;2022-07-17T11:54:25;5.22;;;1.30;;
33094;SDS011;19459;53.044;8.910;2022-07-17T11:56:55;4.53;;;1.23;;
33094;SDS011;19459;53.044;8.910;2022-07-17T11:59:28;3.70;;;1.42;;
33094;SDS011;19459;53.044;8.910;2022-07-17T12:01:56;2.80;;;1.30;;
33094;SDS011;19459;53.044;8.910;2022-07-17T12:04:51;3.08;;;1.60;;
33094;SDS011;19459;53.044;8.910;2022-07-17T12:07:18;3.78;;;1.90;;
33094;SDS011;19459;53.044;8.910;2022-07-17T12:09:45;6.13;;;1.48;;
33094;SDS011;19459;53.044;8.910;2022-07-17T12:12:18;3.13;;;1.95;;
33094;SDS011;19459;53.044;8.910;2022-07-17T12:14:54;3.25;;;1.48;;
33094;SDS011;19459;53.044;8.910;2022-07-17T12:17:22;3.90;;;1.52;;
33094;SDS011;19459;53.044;8.910;2022-07-17T12:19:52;3.55;;;1.30;;
33094;SDS011;19459;53.044;8.910;2022-07-17T12:22:18;7.13;;;1.55;;
33094;SDS011;19459;53.044;8.910;2022-07-17T12:24:44;7.22;;;1.80;;
33094;SDS011;19459;53.044;8.910;2022-07-17T12:27:12;5.93;;;1.95;;
33094;SDS011;19459;53.044;8.910;2022-07-17T12:29:41;4.40;;;1.88;;
33094;SDS011;19459;53.044;8.910;2022-07-17T12:32:10;6.50;;;1.85;;
33094;SDS011;19459;53.044;8.910;2022-07-17T12:34:39;6.80;;;1.30;;
33094;SDS011;19459;53.044;8.910;2022-07-17T12:37:19;5.90;;;2.00;;
33094;SDS011;19459;53.044;8.910;2022-07-17T12:39:48;2.45;;;1.38;;
33094;SDS011;19459;53.044;8.910;2022-07-17T12:42:15;2.25;;;1.10;;
33094;SDS011;19459;53.044;8.910;2022-07-17T12:44:41;4.35;;;1.60;;
33094;SDS011;19459;53.044;8.910;2022-07-17T12:47:08;3.80;;;1.75;;
33094;SDS011;19459;53.044;8.910;2022-07-17T12:49:34;3.35;;;1.40;;
33094;SDS011;19459;53.044;8.910;2022-07-17T12:52:00;6.03;;;1.58;;
33094;SDS011;19459;53.044;8.910;2022-07-17T12:54:27;4.18;;;1.50;;
33094;SDS011;19459;53.044;8.910;2022-07-17T12:56:53;3.85;;;1.55;;
33094;SDS011;19459;53.044;8.910;2022-07-17T12:59:19;3.22;;;1.50;;
33094;SDS011;19459;53.044;8.910;2022-07-17T13:01:46;5.22;;;1.25;;
33094;SDS011;19459;53.044;8.910;2022-07-17T13:04:13;3.97;;;1.52;;
33094;SDS011;19459;53.044;8.910;2022-07-17T13:06:39;7.85;;;2.15;;
33094;SDS011;19459;53.044;8.910;2022-07-17T13:09:05;4.38;;;1.30;;
33094;SDS011;19459;53.044;8.910;2022-07-17T13:11:31;4.15;;;1.40;;
33094;SDS011;19459;53.044;8.910;2022-07-17T13:13:56;3.20;;;1.10;;
33094;SDS011;19459;53.044;8.910;2022-07-17T13:16:24;6.63;;;1.45;;
33094;SDS011;19459;53.044;8.910;2022-07-17T13:18:50;5.00;;;1.27;;
33094;SDS011;19459;53.044;8.910;2022-07-17T13:21:15;3.15;;;1.27;;
33094;SDS011;19459;53.044;8.910;2022-07-17T13:23:41;5.40;;;1.58;;
33094;SDS011;19459;53.044;8.910;2022-07-17T13:26:07;4.22;;;1.13;;
33094;SDS011;19459;53.044;8.910;2022-07-17T13:28:33;4.35;;;1.20;;
33094;SDS011;19459;53.044;8.910;2022-07-17T13:30:59;4.40;;;1.55;;
33094;SDS011;19459;53.044;8.910;2022-07-17T13:33:25;3.50;;;1.27;;
33094;SDS011;19459;53.044;8.910;2022-07-17T13:35:51;5.72;;;1.10;;
33094;SDS011;19459;53.044;8.910;2022-07-17T13:38:19;3.42;;;1.25;;
33094;SDS011;19459;53.044;8.910;2022-07-17T13:40:44;5.05;;;1.15;;
33094;SDS011;19459;53.044;8.910;2022-07-17T13:43:10;4.97;;;1.40;;
33094;SDS011;19459;53.044;8.910;2022-07-17T13:45:36;3.75;;;1.27;;
33094;SDS011;19459;53.044;8.910;2022-07-17T13:48:02;6.93;;;1.30;;
33094;SDS011;19459;53.044;8.910;2022-07-17T13:50:29;3.22;;;1.33;;
33094;SDS011;19459;53.044;8.910;2022-07-17T13:52:56;5.05;;;1.17;;
33094;SDS011;19459;53.044;8.910;2022-07-17T13:55:22;2.45;;;1.25;;
33094;SDS011;19459;53.044;8.910;2022-07-17T13:57:48;4.22;;;1.27;;
33094;SDS011;19459;53.044;8.910;2022-07-17T14:00:14;2.75;;;1.30;;
33094;SDS011;19459;53.044;8.910;2022-07-17T14:02:40;4.10;;;1.30;;
33094;SDS011;19459;53.044;8.910;2022-07-17T14:05:06;7.80;;;1.60;;
33094;SDS011;19459;53.044;8.910;2022-07-17T14:07:33;3.50;;;1.17;;
33094;SDS011;19459;53.044;8.910;2022-07-17T14:10:00;3.72;;;1.50;;
33094;SDS011;19459;53.044;8.910;2022-07-17T14:12:27;4.57;;;1.20;;
33094;SDS011;19459;53.044;8.910;2022-07-17T14:14:53;4.00;;;1.40;;
33094;SDS011;19459;53.044;8.910;2022-07-17T14:17:19;5.15;;;2.00;;
33094;SDS011;19459;53.044;8.910;2022-07-17T14:19:45;2.72;;;1.20;;
33094;SDS011;19459;53.044;8.910;2022-07-17T14:22:11;5.93;;;1.65;;
33094;SDS011;19459;53.044;8.910;2022-07-17T14:24:37;4.25;;;1.38;;
33094;SDS011;19459;53.044;8.910;2022-07-17T14:27:03;4.10;;;1.48;;
33094;SDS011;19459;53.044;8.910;2022-07-17T14:29:28;5.57;;;2.38;;
33094;SDS011;19459;53.044;8.910;2022-07-17T14:31:54;2.22;;;1.13;;
33094;SDS011;19459;53.044;8.910;2022-07-17T14:34:20;3.05;;;1.60;;
33094;SDS011;19459;53.044;8.910;2022-07-17T14:36:46;6.53;;;2.25;;
33094;SDS011;19459;53.044;8.910;2022-07-17T14:39:12;3.25;;;1.40;;
33094;SDS011;19459;53.044;8.910;2022-07-17T14:41:39;4.55;;;1.42;;
33094;SDS011;19459;53.044;8.910;2022-07-17T14:44:10;4.45;;;1.67;;
33094;SDS011;19459;53.044;8.910;2022-07-17T14:46:36;2.83;;;1.50;;
33094;SDS011;19459;53.044;8.910;2022-07-17T14:49:02;5.40;;;1.38;;
33094;SDS011;19459;53.044;8.910;2022-07-17T14:51:29;7.25;;;2.00;;
33094;SDS011;19459;53.044;8.910;2022-07-17T14:53:55;7.00;;;2.50;;
33094;SDS011;19459;53.044;8.910;2022-07-17T14:56:21;4.72;;;2.05;;
33094;SDS011;19459;53.044;8.910;2022-07-17T14:58:47;5.45;;;1.88;;
33094;SDS011;19459;53.044;8.910;2022-07-17T15:01:13;6.95;;;2.22;;
33094;SDS011;19459;53.044;8.910;2022-07-17T15:03:38;11.27;;;2.33;;
33094;SDS011;19459;53.044;8.910;2022-07-17T15:06:04;3.80;;;1.92;;
33094;SDS011;19459;53.044;8.910;2022-07-17T15:08:30;7.60;;;2.20;;
33094;SDS011;19459;53.044;8.910;2022-07-17T15:10:56;4.15;;;1.95;;
33094;SDS011;19459;53.044;8.910;2022-07-17T15:13:22;6.18;;;1.92;;
33094;SDS011;19459;53.044;8.910;2022-07-17T15:15:48;4.72;;;2.33;;
33094;SDS011;19459;53.044;8.910;2022-07-17T15:18:14;7.53;;;2.58;;
33094;SDS011;19459;53.044;8.910;2022-07-17T15:20:40;5.50;;;2.13;;